sensor_id;sensor_type;location;lat;lon;timestamp;P1;durP1;ratioP1;P2;durP2;ratioP2
1837;SDS011;918;50.796;6.772;2023-06-24T00:00:31;9.50;;;8.80;;
1837;SDS011;918;50.796;6.772;2023-06-24T00:02:56;9.57;;;8.87;;
1837;SDS011;918;50.796;6.772;2023-06-24T00:05:23;12.40;;;8.90;;
1837;SDS011;918;50.796;6.772;2023-06-24T00:07:48;10.00;;;9.27;;
1837;SDS011;918;50.796;6.772;2023-06-24T00:10:14;10.00;;;9.20;;
1837;SDS011;918;50.796;6.772;2023-06-24T00:12:39;10.23;;;9.20;;
1837;SDS011;918;50.796;6.772;2023-06-24T00:15:06;9.83;;;8.93;;
1837;SDS011;918;50.796;6.772;2023-06-24T00:17:32;10.07;;;9.13;;
1837;SDS011;918;50.796;6.772;2023-06-24T00:19:58;8.97;;;8.37;;
1837;SDS011;918;50.796;6.772;2023-06-24T00:22:23;10.43;;;9.53;;
1837;SDS011;918;50.796;6.772;2023-06-24T00:24:48;10.60;;;9.50;;
1837;SDS011;918;50.796;6.772;2023-06-24T00:27:13;9.80;;;9.00;;
1837;SDS011;918;50.796;6.772;2023-06-24T00:29:39;11.07;;;10.03;;
1837;SDS011;918;50.796;6.772;2023-06-24T00:32:04;9.63;;;8.93;;
1837;SDS011;918;50.796;6.772;2023-06-24T00:34:30;10.57;;;9.77;;
1837;SDS011;918;50.796;6.772;2023-06-24T00:36:55;9.90;;;9.03;;
1837;SDS011;918;50.796;6.772;2023-06-24T00:39:20;10.00;;;9.30;;
1837;SDS011;918;50.796;6.772;2023-06-24T00:41:46;10.03;;;9.10;;
1837;SDS011;918;50.796;6.772;2023-06-24T00:44:11;9.00;;;8.40;;
1837;SDS011;918;50.796;6.772;2023-06-24T00:46:37;10.23;;;9.33;;
1837;SDS011;918;50.796;6.772;2023-06-24T00:49:02;9.20;;;8.50;;
1837;SDS011;918;50.796;6.772;2023-06-24T00:51:27;9.50;;;8.80;;
1837;SDS011;918;50.796;6.772;2023-06-24T00:53:55;10.23;;;9.30;;
1837;SDS011;918;50.796;6.772;2023-06-24T00:56:21;9.33;;;8.53;;
1837;SDS011;918;50.796;6.772;2023-06-24T00:58:47;10.20;;;9.30;;
1837;SDS011;918;50.796;6.772;2023-06-24T01:01:13;9.47;;;8.67;;
1837;SDS011;918;50.796;6.772;2023-06-24T01:03:39;9.30;;;8.60;;
1837;SDS011;918;50.796;6.772;2023-06-24T01:06:05;10.77;;;9.73;;
1837;SDS011;918;50.796;6.772;2023-06-24T01:08:30;10.43;;;9.60;;
1837;SDS011;918;50.796;6.772;2023-06-24T01:10:56;10.50;;;9.50;;
1837;SDS011;918;50.796;6.772;2023-06-24T01:13:21;10.30;;;9.40;;
1837;SDS011;918;50.796;6.772;2023-06-24T01:15:47;9.70;;;8.87;;
1837;SDS011;918;50.796;6.772;2023-06-24T01:20:44;9.97;;;9.00;;
1837;SDS011;918;50.796;6.772;2023-06-24T01:23:20;10.60;;;9.70;;
1837;SDS011;918;50.796;6.772;2023-06-24T01:31:39;10.37;;;9.37;;
1837;SDS011;918;50.796;6.772;2023-06-24T01:34:12;11.00;;;9.90;;
1837;SDS011;918;50.796;6.772;2023-06-24T01:36:43;10.87;;;9.87;;
1837;SDS011;918;50.796;6.772;2023-06-24T01:39:10;10.83;;;9.73;;
1837;SDS011;918;50.796;6.772;2023-06-24T01:41:40;11.37;;;10.10;;
1837;SDS011;918;50.796;6.772;2023-06-24T01:44:12;10.43;;;9.53;;
1837;SDS011;918;50.796;6.772;2023-06-24T01:46:38;13.97;;;11.40;;
1837;SDS011;918;50.796;6.772;2023-06-24T01:49:06;11.20;;;10.00;;
1837;SDS011;918;50.796;6.772;2023-06-24T01:51:32;10.90;;;9.90;;
1837;SDS011;918;50.796;6.772;2023-06-24T01:54:03;11.37;;;10.17;;
1837;SDS011;918;50.796;6.772;2023-06-24T01:56:32;10.73;;;9.83;;
1837;SDS011;918;50.796;6.772;2023-06-24T01:59:00;10.17;;;9.10;;
1837;SDS011;918;50.796;6.772;2023-06-24T02:01:26;11.17;;;10.00;;
1837;SDS011;918;50.796;6.772;2023-06-24T02:03:52;10.27;;;9.27;;
1837;SDS011;918;50.796;6.772;2023-06-24T02:06:20;11.00;;;8.70;;
1837;SDS011;918;50.796;6.772;2023-06-24T02:08:47;10.40;;;9.50;;
1837;SDS011;918;50.796;6.772;2023-06-24T02:11:13;11.17;;;10.03;;
1837;SDS011;918;50.796;6.772;2023-06-24T02:13:39;11.37;;;10.43;;
1837;SDS011;918;50.796;6.772;2023-06-24T02:16:06;10.80;;;9.70;;
1837;SDS011;918;50.796;6.772;2023-06-24T02:18:32;11.20;;;9.73;;
1837;SDS011;918;50.796;6.772;2023-06-24T02:20:59;12.17;;;10.57;;
1837;SDS011;918;50.796;6.772;2023-06-24T02:23:24;12.07;;;10.23;;
1837;SDS011;918;50.796;6.772;2023-06-24T02:25:50;11.90;;;10.33;;
1837;SDS011;918;50.796;6.772;2023-06-24T02:28:15;10.67;;;9.67;;
1837;SDS011;918;50.796;6.772;2023-06-24T02:30:42;13.23;;;10.90;;
1837;SDS011;918;50.796;6.772;2023-06-24T02:33:08;11.73;;;10.83;;
1837;SDS011;918;50.796;6.772;2023-06-24T02:35:34;11.10;;;10.00;;
1837;SDS011;918;50.796;6.772;2023-06-24T02:37:59;10.23;;;9.30;;
1837;SDS011;918;50.796;6.772;2023-06-24T02:40:24;13.60;;;10.50;;
1837;SDS011;918;50.796;6.772;2023-06-24T02:42:50;13.20;;;10.67;;
1837;SDS011;918;50.796;6.772;2023-06-24T02:45:16;12.30;;;11.10;;
1837;SDS011;918;50.796;6.772;2023-06-24T02:47:41;11.83;;;10.63;;
1837;SDS011;918;50.796;6.772;2023-06-24T02:50:09;13.83;;;10.10;;
1837;SDS011;918;50.796;6.772;2023-06-24T02:52:34;13.50;;;10.37;;
1837;SDS011;918;50.796;6.772;2023-06-24T02:55:02;12.30;;;11.03;;
1837;SDS011;918;50.796;6.772;2023-06-24T02:57:27;12.37;;;10.53;;
1837;SDS011;918;50.796;6.772;2023-06-24T02:59:53;10.90;;;10.00;;
1837;SDS011;918;50.796;6.772;2023-06-24T03:02:18;14.00;;;9.97;;
1837;SDS011;918;50.796;6.772;2023-06-24T03:04:43;15.10;;;12.00;;
1837;SDS011;918;50.796;6.772;2023-06-24T03:07:10;14.27;;;10.50;;
1837;SDS011;918;50.796;6.772;2023-06-24T03:09:35;12.87;;;11.57;;
1837;SDS011;918;50.796;6.772;2023-06-24T03:12:01;12.47;;;10.30;;
1837;SDS011;918;50.796;6.772;2023-06-24T03:14:26;11.23;;;10.17;;
1837;SDS011;918;50.796;6.772;2023-06-24T03:16:51;12.03;;;10.40;;
1837;SDS011;918;50.796;6.772;2023-06-24T03:19:17;12.23;;;11.03;;
1837;SDS011;918;50.796;6.772;2023-06-24T03:21:42;12.93;;;11.53;;
1837;SDS011;918;50.796;6.772;2023-06-24T03:24:07;11.20;;;10.10;;
1837;SDS011;918;50.796;6.772;2023-06-24T03:26:34;12.47;;;10.27;;
1837;SDS011;918;50.796;6.772;2023-06-24T03:29:00;12.60;;;10.93;;
1837;SDS011;918;50.796;6.772;2023-06-24T03:31:26;15.87;;;10.03;;
1837;SDS011;918;50.796;6.772;2023-06-24T03:33:51;14.20;;;10.87;;
1837;SDS011;918;50.796;6.772;2023-06-24T03:36:16;14.67;;;11.27;;
1837;SDS011;918;50.796;6.772;2023-06-24T03:38:41;11.17;;;10.13;;
1837;SDS011;918;50.796;6.772;2023-06-24T03:41:07;11.37;;;10.27;;
1837;SDS011;918;50.796;6.772;2023-06-24T03:43:32;14.00;;;10.80;;
1837;SDS011;918;50.796;6.772;2023-06-24T03:45:57;13.77;;;9.57;;
1837;SDS011;918;50.796;6.772;2023-06-24T03:48:22;12.10;;;9.90;;
1837;SDS011;918;50.796;6.772;2023-06-24T03:50:48;12.43;;;10.83;;
1837;SDS011;918;50.796;6.772;2023-06-24T03:53:13;13.90;;;10.50;;
1837;SDS011;918;50.796;6.772;2023-06-24T03:55:38;14.70;;;9.97;;
1837;SDS011;918;50.796;6.772;2023-06-24T03:58:04;15.03;;;10.40;;
1837;SDS011;918;50.796;6.772;2023-06-24T04:00:29;11.40;;;10.30;;
1837;SDS011;918;50.796;6.772;2023-06-24T04:02:54;17.73;;;11.93;;
1837;SDS011;918;50.796;6.772;2023-06-24T04:05:20;19.00;;;11.30;;
1837;SDS011;918;50.796;6.772;2023-06-24T04:07:45;12.77;;;10.50;;
1837;SDS011;918;50.796;6.772;2023-06-24T04:10:12;15.67;;;10.80;;
1837;SDS011;918;50.796;6.772;2023-06-24T04:12:37;12.57;;;11.27;;
1837;SDS011;918;50.796;6.772;2023-06-24T04:15:03;16.37;;;10.87;;
1837;SDS011;918;50.796;6.772;2023-06-24T04:17:29;11.73;;;10.63;;
1837;SDS011;918;50.796;6.772;2023-06-24T04:19:55;14.50;;;11.20;;
1837;SDS011;918;50.796;6.772;2023-06-24T04:22:20;19.37;;;12.10;;
1837;SDS011;918;50.796;6.772;2023-06-24T04:24:45;20.43;;;14.43;;
1837;SDS011;918;50.796;6.772;2023-06-24T04:27:11;25.40;;;12.60;;
1837;SDS011;918;50.796;6.772;2023-06-24T04:29:36;20.03;;;13.00;;
1837;SDS011;918;50.796;6.772;2023-06-24T04:32:01;22.00;;;13.20;;
1837;SDS011;918;50.796;6.772;2023-06-24T04:34:27;23.13;;;11.63;;
1837;SDS011;918;50.796;6.772;2023-06-24T04:36:52;12.47;;;9.97;;
1837;SDS011;918;50.796;6.772;2023-06-24T04:39:17;12.60;;;9.60;;
1837;SDS011;918;50.796;6.772;2023-06-24T04:41:43;12.40;;;9.83;;
1837;SDS011;918;50.796;6.772;2023-06-24T04:44:08;14.20;;;9.33;;
1837;SDS011;918;50.796;6.772;2023-06-24T04:46:33;12.00;;;9.17;;
1837;SDS011;918;50.796;6.772;2023-06-24T04:48:59;14.00;;;9.37;;
1837;SDS011;918;50.796;6.772;2023-06-24T04:51:24;14.30;;;9.97;;
1837;SDS011;918;50.796;6.772;2023-06-24T04:53:50;17.10;;;9.40;;
1837;SDS011;918;50.796;6.772;2023-06-24T04:56:15;12.83;;;8.43;;
1837;SDS011;918;50.796;6.772;2023-06-24T04:58:40;14.63;;;8.80;;
1837;SDS011;918;50.796;6.772;2023-06-24T05:01:05;14.33;;;8.43;;
1837;SDS011;918;50.796;6.772;2023-06-24T05:03:31;13.40;;;7.20;;
1837;SDS011;918;50.796;6.772;2023-06-24T05:05:56;12.03;;;7.57;;
1837;SDS011;918;50.796;6.772;2023-06-24T05:08:21;20.23;;;8.17;;
1837;SDS011;918;50.796;6.772;2023-06-24T05:10:46;8.63;;;7.57;;
1837;SDS011;918;50.796;6.772;2023-06-24T05:13:12;13.03;;;7.60;;
1837;SDS011;918;50.796;6.772;2023-06-24T05:15:37;12.63;;;8.03;;
1837;SDS011;918;50.796;6.772;2023-06-24T05:18:02;7.93;;;6.97;;
1837;SDS011;918;50.796;6.772;2023-06-24T05:20:27;12.37;;;7.97;;
1837;SDS011;918;50.796;6.772;2023-06-24T05:22:52;8.63;;;6.70;;
1837;SDS011;918;50.796;6.772;2023-06-24T05:25:18;11.57;;;6.57;;
1837;SDS011;918;50.796;6.772;2023-06-24T05:27:44;8.80;;;6.73;;
1837;SDS011;918;50.796;6.772;2023-06-24T05:30:11;10.80;;;6.17;;
1837;SDS011;918;50.796;6.772;2023-06-24T05:32:37;11.03;;;6.43;;
1837;SDS011;918;50.796;6.772;2023-06-24T05:35:03;10.80;;;6.00;;
1837;SDS011;918;50.796;6.772;2023-06-24T05:37:29;7.20;;;5.60;;
1837;SDS011;918;50.796;6.772;2023-06-24T05:39:54;8.13;;;6.20;;
1837;SDS011;918;50.796;6.772;2023-06-24T05:42:20;6.33;;;5.73;;
1837;SDS011;918;50.796;6.772;2023-06-24T05:44:45;6.27;;;5.33;;
1837;SDS011;918;50.796;6.772;2023-06-24T05:47:10;6.03;;;5.13;;
1837;SDS011;918;50.796;6.772;2023-06-24T05:49:36;6.77;;;5.53;;
1837;SDS011;918;50.796;6.772;2023-06-24T05:52:01;6.00;;;5.37;;
1837;SDS011;918;50.796;6.772;2023-06-24T05:54:26;6.00;;;5.50;;
1837;SDS011;918;50.796;6.772;2023-06-24T05:56:51;6.60;;;6.00;;
1837;SDS011;918;50.796;6.772;2023-06-24T05:59:17;6.60;;;5.40;;
1837;SDS011;918;50.796;6.772;2023-06-24T06:01:42;7.03;;;6.43;;
1837;SDS011;918;50.796;6.772;2023-06-24T06:04:07;6.10;;;5.70;;
1837;SDS011;918;50.796;6.772;2023-06-24T06:06:32;6.20;;;5.60;;
1837;SDS011;918;50.796;6.772;2023-06-24T06:08:58;7.67;;;6.57;;
1837;SDS011;918;50.796;6.772;2023-06-24T06:11:24;6.30;;;5.70;;
1837;SDS011;918;50.796;6.772;2023-06-24T06:13:49;6.87;;;6.33;;
1837;SDS011;918;50.796;6.772;2023-06-24T06:16:14;6.57;;;6.00;;
1837;SDS011;918;50.796;6.772;2023-06-24T06:18:40;6.57;;;6.07;;
1837;SDS011;918;50.796;6.772;2023-06-24T06:21:05;7.80;;;7.00;;
1837;SDS011;918;50.796;6.772;2023-06-24T06:23:30;6.30;;;5.70;;
1837;SDS011;918;50.796;6.772;2023-06-24T06:25:55;6.47;;;6.00;;
1837;SDS011;918;50.796;6.772;2023-06-24T06:28:21;6.83;;;6.33;;
1837;SDS011;918;50.796;6.772;2023-06-24T06:30:46;7.73;;;6.17;;
1837;SDS011;918;50.796;6.772;2023-06-24T06:33:11;7.13;;;6.60;;
1837;SDS011;918;50.796;6.772;2023-06-24T06:35:36;7.57;;;6.80;;
1837;SDS011;918;50.796;6.772;2023-06-24T06:38:02;6.17;;;5.73;;
1837;SDS011;918;50.796;6.772;2023-06-24T06:40:27;7.20;;;6.60;;
1837;SDS011;918;50.796;6.772;2023-06-24T06:42:53;7.40;;;5.90;;
1837;SDS011;918;50.796;6.772;2023-06-24T06:45:19;7.33;;;6.73;;
1837;SDS011;918;50.796;6.772;2023-06-24T06:47:44;7.30;;;6.80;;
1837;SDS011;918;50.796;6.772;2023-06-24T06:50:09;8.70;;;7.90;;
1837;SDS011;918;50.796;6.772;2023-06-24T06:52:35;7.87;;;7.17;;
1837;SDS011;918;50.796;6.772;2023-06-24T06:55:00;7.80;;;7.10;;
1837;SDS011;918;50.796;6.772;2023-06-24T06:57:25;7.90;;;7.10;;
1837;SDS011;918;50.796;6.772;2023-06-24T06:59:51;6.80;;;6.20;;
1837;SDS011;918;50.796;6.772;2023-06-24T07:02:17;7.20;;;6.60;;
1837;SDS011;918;50.796;6.772;2023-06-24T07:04:43;6.53;;;6.00;;
1837;SDS011;918;50.796;6.772;2023-06-24T07:07:08;5.70;;;5.30;;
1837;SDS011;918;50.796;6.772;2023-06-24T07:09:34;6.07;;;5.57;;
1837;SDS011;918;50.796;6.772;2023-06-24T07:11:59;6.57;;;6.07;;
1837;SDS011;918;50.796;6.772;2023-06-24T07:14:25;5.27;;;4.97;;
1837;SDS011;918;50.796;6.772;2023-06-24T07:16:50;7.60;;;6.90;;
1837;SDS011;918;50.796;6.772;2023-06-24T07:19:15;5.23;;;4.83;;
1837;SDS011;918;50.796;6.772;2023-06-24T07:21:40;5.33;;;5.00;;
1837;SDS011;918;50.796;6.772;2023-06-24T07:24:05;4.90;;;4.60;;
1837;SDS011;918;50.796;6.772;2023-06-24T07:26:31;5.93;;;5.57;;
1837;SDS011;918;50.796;6.772;2023-06-24T07:28:56;4.63;;;4.33;;
1837;SDS011;918;50.796;6.772;2023-06-24T07:31:23;5.17;;;4.73;;
1837;SDS011;918;50.796;6.772;2023-06-24T07:33:48;5.07;;;4.70;;
1837;SDS011;918;50.796;6.772;2023-06-24T07:36:13;5.77;;;5.37;;
1837;SDS011;918;50.796;6.772;2023-06-24T07:38:38;5.77;;;4.60;;
1837;SDS011;918;50.796;6.772;2023-06-24T07:41:04;6.27;;;5.77;;
1837;SDS011;918;50.796;6.772;2023-06-24T07:43:29;5.13;;;4.33;;
1837;SDS011;918;50.796;6.772;2023-06-24T07:45:54;4.90;;;4.50;;
1837;SDS011;918;50.796;6.772;2023-06-24T07:48:19;6.13;;;5.63;;
1837;SDS011;918;50.796;6.772;2023-06-24T07:50:45;5.50;;;5.00;;
1837;SDS011;918;50.796;6.772;2023-06-24T07:53:10;4.83;;;4.53;;
1837;SDS011;918;50.796;6.772;2023-06-24T07:55:35;5.70;;;5.30;;
1837;SDS011;918;50.796;6.772;2023-06-24T07:58:00;5.60;;;5.20;;
1837;SDS011;918;50.796;6.772;2023-06-24T08:00:27;4.73;;;4.33;;
1837;SDS011;918;50.796;6.772;2023-06-24T08:02:53;7.17;;;4.87;;
1837;SDS011;918;50.796;6.772;2023-06-24T08:05:20;5.07;;;4.60;;
1837;SDS011;918;50.796;6.772;2023-06-24T08:07:45;5.60;;;5.20;;
1837;SDS011;918;50.796;6.772;2023-06-24T08:10:11;5.77;;;5.17;;
1837;SDS011;918;50.796;6.772;2023-06-24T08:12:36;5.37;;;4.80;;
1837;SDS011;918;50.796;6.772;2023-06-24T08:15:01;5.10;;;4.70;;
1837;SDS011;918;50.796;6.772;2023-06-24T08:17:27;7.00;;;6.40;;
1837;SDS011;918;50.796;6.772;2023-06-24T08:19:52;5.50;;;5.10;;
1837;SDS011;918;50.796;6.772;2023-06-24T08:22:18;4.90;;;4.60;;
1837;SDS011;918;50.796;6.772;2023-06-24T08:24:43;6.87;;;6.37;;
1837;SDS011;918;50.796;6.772;2023-06-24T08:27:08;6.07;;;5.57;;
1837;SDS011;918;50.796;6.772;2023-06-24T08:29:33;6.80;;;6.20;;
1837;SDS011;918;50.796;6.772;2023-06-24T08:31:59;6.90;;;6.17;;
1837;SDS011;918;50.796;6.772;2023-06-24T08:34:24;5.73;;;5.33;;
1837;SDS011;918;50.796;6.772;2023-06-24T08:36:49;5.37;;;4.97;;
1837;SDS011;918;50.796;6.772;2023-06-24T08:39:14;7.27;;;6.57;;
1837;SDS011;918;50.796;6.772;2023-06-24T08:41:40;7.43;;;6.20;;
1837;SDS011;918;50.796;6.772;2023-06-24T08:44:05;6.40;;;5.90;;
1837;SDS011;918;50.796;6.772;2023-06-24T08:46:30;7.10;;;6.40;;
1837;SDS011;918;50.796;6.772;2023-06-24T08:51:54;6.00;;;5.00;;
1837;SDS011;918;50.796;6.772;2023-06-24T08:54:28;6.80;;;6.20;;
1837;SDS011;918;50.796;6.772;2023-06-24T08:56:55;6.00;;;5.57;;
1837;SDS011;918;50.796;6.772;2023-06-24T08:59:20;6.00;;;5.50;;
1837;SDS011;918;50.796;6.772;2023-06-24T09:01:46;7.40;;;6.80;;
1837;SDS011;918;50.796;6.772;2023-06-24T09:04:12;8.07;;;7.20;;
1837;SDS011;918;50.796;6.772;2023-06-24T09:06:37;7.00;;;6.40;;
1837;SDS011;918;50.796;6.772;2023-06-24T09:09:02;6.03;;;5.63;;
1837;SDS011;918;50.796;6.772;2023-06-24T09:11:28;5.60;;;5.20;;
1837;SDS011;918;50.796;6.772;2023-06-24T09:13:57;5.17;;;4.70;;
1837;SDS011;918;50.796;6.772;2023-06-24T09:16:23;6.30;;;5.70;;
1837;SDS011;918;50.796;6.772;2023-06-24T09:18:49;5.50;;;5.10;;
1837;SDS011;918;50.796;6.772;2023-06-24T09:21:21;5.30;;;4.53;;
1837;SDS011;918;50.796;6.772;2023-06-24T09:23:57;5.57;;;4.70;;
1837;SDS011;918;50.796;6.772;2023-06-24T09:26:24;6.10;;;5.60;;
1837;SDS011;918;50.796;6.772;2023-06-24T09:28:50;6.20;;;5.70;;
1837;SDS011;918;50.796;6.772;2023-06-24T09:31:15;5.10;;;4.70;;
1837;SDS011;918;50.796;6.772;2023-06-24T09:33:42;5.77;;;5.10;;
1837;SDS011;918;50.796;6.772;2023-06-24T09:36:10;6.10;;;4.80;;
1837;SDS011;918;50.796;6.772;2023-06-24T09:38:36;6.07;;;5.47;;
1837;SDS011;918;50.796;6.772;2023-06-24T09:41:03;5.43;;;4.73;;
1837;SDS011;918;50.796;6.772;2023-06-24T09:43:34;6.33;;;5.83;;
1837;SDS011;918;50.796;6.772;2023-06-24T09:46:04;4.43;;;4.13;;
1837;SDS011;918;50.796;6.772;2023-06-24T09:48:30;6.07;;;5.60;;
1837;SDS011;918;50.796;6.772;2023-06-24T09:50:59;5.17;;;4.77;;
1837;SDS011;918;50.796;6.772;2023-06-24T09:53:26;4.83;;;4.53;;
1837;SDS011;918;50.796;6.772;2023-06-24T09:55:54;6.63;;;6.13;;
1837;SDS011;918;50.796;6.772;2023-06-24T09:58:20;7.67;;;6.97;;
1837;SDS011;918;50.796;6.772;2023-06-24T10:00:45;5.10;;;4.73;;
1837;SDS011;918;50.796;6.772;2023-06-24T10:03:11;6.40;;;5.90;;
1837;SDS011;918;50.796;6.772;2023-06-24T10:05:36;6.13;;;5.73;;
1837;SDS011;918;50.796;6.772;2023-06-24T10:08:03;4.77;;;4.37;;
1837;SDS011;918;50.796;6.772;2023-06-24T10:10:30;5.40;;;5.00;;
1837;SDS011;918;50.796;6.772;2023-06-24T10:12:56;5.47;;;5.07;;
1837;SDS011;918;50.796;6.772;2023-06-24T10:15:21;6.17;;;5.60;;
1837;SDS011;918;50.796;6.772;2023-06-24T10:17:47;5.87;;;5.27;;
1837;SDS011;918;50.796;6.772;2023-06-24T10:20:12;5.33;;;4.83;;
1837;SDS011;918;50.796;6.772;2023-06-24T10:22:38;5.67;;;5.17;;
1837;SDS011;918;50.796;6.772;2023-06-24T10:25:05;5.00;;;4.60;;
1837;SDS011;918;50.796;6.772;2023-06-24T10:27:38;4.87;;;4.47;;
1837;SDS011;918;50.796;6.772;2023-06-24T10:30:04;5.30;;;4.80;;
1837;SDS011;918;50.796;6.772;2023-06-24T10:32:39;5.03;;;4.67;;
1837;SDS011;918;50.796;6.772;2023-06-24T10:35:26;6.17;;;4.70;;
1837;SDS011;918;50.796;6.772;2023-06-24T10:37:58;5.73;;;5.23;;
1837;SDS011;918;50.796;6.772;2023-06-24T10:40:34;5.13;;;4.73;;
1837;SDS011;918;50.796;6.772;2023-06-24T10:43:01;5.70;;;5.20;;
1837;SDS011;918;50.796;6.772;2023-06-24T10:45:26;5.70;;;5.20;;
1837;SDS011;918;50.796;6.772;2023-06-24T10:47:52;5.83;;;5.37;;
1837;SDS011;918;50.796;6.772;2023-06-24T10:50:21;5.80;;;5.30;;
1837;SDS011;918;50.796;6.772;2023-06-24T10:52:49;5.83;;;5.33;;
1837;SDS011;918;50.796;6.772;2023-06-24T10:55:20;5.00;;;4.60;;
1837;SDS011;918;50.796;6.772;2023-06-24T10:57:48;5.20;;;4.80;;
1837;SDS011;918;50.796;6.772;2023-06-24T11:00:13;5.67;;;5.23;;
1837;SDS011;918;50.796;6.772;2023-06-24T11:02:40;4.83;;;4.53;;
1837;SDS011;918;50.796;6.772;2023-06-24T11:05:05;4.80;;;4.40;;
1837;SDS011;918;50.796;6.772;2023-06-24T11:07:31;6.33;;;5.87;;
1837;SDS011;918;50.796;6.772;2023-06-24T11:10:01;7.07;;;4.63;;
1837;SDS011;918;50.796;6.772;2023-06-24T11:12:32;5.17;;;4.73;;
1837;SDS011;918;50.796;6.772;2023-06-24T11:15:01;5.03;;;4.53;;
1837;SDS011;918;50.796;6.772;2023-06-24T11:17:27;5.43;;;4.93;;
1837;SDS011;918;50.796;6.772;2023-06-24T11:19:53;4.87;;;4.47;;
1837;SDS011;918;50.796;6.772;2023-06-24T11:22:19;4.87;;;4.47;;
1837;SDS011;918;50.796;6.772;2023-06-24T11:24:44;5.93;;;5.50;;
1837;SDS011;918;50.796;6.772;2023-06-24T11:27:09;5.70;;;5.30;;
1837;SDS011;918;50.796;6.772;2023-06-24T11:29:34;5.30;;;4.90;;
1837;SDS011;918;50.796;6.772;2023-06-24T11:32:01;4.50;;;4.10;;
1837;SDS011;918;50.796;6.772;2023-06-24T11:34:27;4.40;;;4.10;;
1837;SDS011;918;50.796;6.772;2023-06-24T11:36:52;4.60;;;4.30;;
1837;SDS011;918;50.796;6.772;2023-06-24T11:39:24;5.30;;;4.90;;
1837;SDS011;918;50.796;6.772;2023-06-24T11:41:50;4.50;;;4.20;;
1837;SDS011;918;50.796;6.772;2023-06-24T11:44:23;5.00;;;4.60;;
1837;SDS011;918;50.796;6.772;2023-06-24T11:46:49;4.87;;;4.57;;
1837;SDS011;918;50.796;6.772;2023-06-24T11:49:14;3.87;;;3.57;;
1837;SDS011;918;50.796;6.772;2023-06-24T11:51:49;4.27;;;3.97;;
1837;SDS011;918;50.796;6.772;2023-06-24T11:54:16;4.20;;;3.90;;
1837;SDS011;918;50.796;6.772;2023-06-24T11:56:43;4.40;;;4.00;;
1837;SDS011;918;50.796;6.772;2023-06-24T11:59:19;3.73;;;3.43;;
1837;SDS011;918;50.796;6.772;2023-06-24T12:01:52;4.20;;;3.90;;
1837;SDS011;918;50.796;6.772;2023-06-24T12:04:27;4.47;;;4.07;;
1837;SDS011;918;50.796;6.772;2023-06-24T12:06:53;4.27;;;4.00;;
1837;SDS011;918;50.796;6.772;2023-06-24T12:09:18;3.63;;;3.33;;
1837;SDS011;918;50.796;6.772;2023-06-24T12:11:44;3.83;;;3.63;;
1837;SDS011;918;50.796;6.772;2023-06-24T12:14:09;4.10;;;3.70;;
1837;SDS011;918;50.796;6.772;2023-06-24T12:16:35;3.93;;;3.60;;
1837;SDS011;918;50.796;6.772;2023-06-24T12:19:00;4.50;;;4.17;;
1837;SDS011;918;50.796;6.772;2023-06-24T12:21:25;4.13;;;3.83;;
1837;SDS011;918;50.796;6.772;2023-06-24T12:23:50;4.20;;;3.80;;
1837;SDS011;918;50.796;6.772;2023-06-24T12:26:16;3.60;;;3.40;;
1837;SDS011;918;50.796;6.772;2023-06-24T12:28:41;4.17;;;3.60;;
1837;SDS011;918;50.796;6.772;2023-06-24T12:31:06;3.80;;;3.60;;
1837;SDS011;918;50.796;6.772;2023-06-24T12:33:32;4.07;;;3.83;;
1837;SDS011;918;50.796;6.772;2023-06-24T12:35:58;3.80;;;3.50;;
1837;SDS011;918;50.796;6.772;2023-06-24T12:38:23;3.53;;;3.23;;
1837;SDS011;918;50.796;6.772;2023-06-24T12:40:49;3.93;;;3.63;;
1837;SDS011;918;50.796;6.772;2023-06-24T12:43:14;4.03;;;3.73;;
1837;SDS011;918;50.796;6.772;2023-06-24T12:45:40;3.67;;;3.37;;
1837;SDS011;918;50.796;6.772;2023-06-24T12:48:08;4.30;;;3.40;;
1837;SDS011;918;50.796;6.772;2023-06-24T12:50:34;4.17;;;3.83;;
1837;SDS011;918;50.796;6.772;2023-06-24T12:52:59;4.03;;;3.73;;
1837;SDS011;918;50.796;6.772;2023-06-24T12:55:24;4.13;;;3.07;;
1837;SDS011;918;50.796;6.772;2023-06-24T12:57:49;4.30;;;3.90;;
1837;SDS011;918;50.796;6.772;2023-06-24T13:00:15;4.10;;;3.53;;
1837;SDS011;918;50.796;6.772;2023-06-24T13:02:42;4.20;;;3.90;;
1837;SDS011;918;50.796;6.772;2023-06-24T13:05:07;3.60;;;3.30;;
1837;SDS011;918;50.796;6.772;2023-06-24T13:07:32;3.63;;;3.43;;
1837;SDS011;918;50.796;6.772;2023-06-24T13:09:58;4.40;;;4.00;;
1837;SDS011;918;50.796;6.772;2023-06-24T13:12:24;4.40;;;4.03;;
1837;SDS011;918;50.796;6.772;2023-06-24T13:14:49;3.60;;;3.40;;
1837;SDS011;918;50.796;6.772;2023-06-24T13:17:15;3.77;;;3.47;;
1837;SDS011;918;50.796;6.772;2023-06-24T13:19:40;4.27;;;3.87;;
1837;SDS011;918;50.796;6.772;2023-06-24T13:22:05;3.87;;;3.57;;
1837;SDS011;918;50.796;6.772;2023-06-24T13:24:30;4.03;;;3.70;;
1837;SDS011;918;50.796;6.772;2023-06-24T13:26:56;3.73;;;3.53;;
1837;SDS011;918;50.796;6.772;2023-06-24T13:29:21;3.50;;;3.20;;
1837;SDS011;918;50.796;6.772;2023-06-24T13:31:46;3.47;;;3.20;;
1837;SDS011;918;50.796;6.772;2023-06-24T13:34:12;3.77;;;3.47;;
1837;SDS011;918;50.796;6.772;2023-06-24T13:36:37;3.60;;;3.40;;
1837;SDS011;918;50.796;6.772;2023-06-24T13:39:03;4.00;;;3.70;;
1837;SDS011;918;50.796;6.772;2023-06-24T13:41:30;3.60;;;3.30;;
1837;SDS011;918;50.796;6.772;2023-06-24T13:43:57;3.50;;;3.30;;
1837;SDS011;918;50.796;6.772;2023-06-24T13:46:23;3.73;;;3.43;;
1837;SDS011;918;50.796;6.772;2023-06-24T13:48:48;3.00;;;2.70;;
1837;SDS011;918;50.796;6.772;2023-06-24T13:51:15;3.80;;;3.50;;
1837;SDS011;918;50.796;6.772;2023-06-24T13:53:40;3.60;;;3.30;;
1837;SDS011;918;50.796;6.772;2023-06-24T13:56:06;4.17;;;3.43;;
1837;SDS011;918;50.796;6.772;2023-06-24T13:58:31;3.70;;;3.40;;
1837;SDS011;918;50.796;6.772;2023-06-24T14:00:56;4.50;;;3.47;;
1837;SDS011;918;50.796;6.772;2023-06-24T14:03:22;3.50;;;3.27;;
1837;SDS011;918;50.796;6.772;2023-06-24T14:05:47;3.47;;;3.23;;
1837;SDS011;918;50.796;6.772;2023-06-24T14:08:12;3.50;;;3.30;;
1837;SDS011;918;50.796;6.772;2023-06-24T14:10:37;3.60;;;3.30;;
1837;SDS011;918;50.796;6.772;2023-06-24T14:13:03;3.50;;;3.20;;
1837;SDS011;918;50.796;6.772;2023-06-24T14:15:28;4.00;;;3.70;;
1837;SDS011;918;50.796;6.772;2023-06-24T14:17:53;4.00;;;3.70;;
1837;SDS011;918;50.796;6.772;2023-06-24T14:20:18;2.87;;;2.67;;
1837;SDS011;918;50.796;6.772;2023-06-24T14:22:44;3.47;;;3.20;;
1837;SDS011;918;50.796;6.772;2023-06-24T14:25:09;3.17;;;2.97;;
1837;SDS011;918;50.796;6.772;2023-06-24T14:27:34;3.30;;;3.00;;
1837;SDS011;918;50.796;6.772;2023-06-24T14:30:00;3.33;;;3.13;;
1837;SDS011;918;50.796;6.772;2023-06-24T14:32:25;3.30;;;3.03;;
1837;SDS011;918;50.796;6.772;2023-06-24T14:34:50;2.90;;;2.70;;
1837;SDS011;918;50.796;6.772;2023-06-24T14:37:16;3.57;;;3.30;;
1837;SDS011;918;50.796;6.772;2023-06-24T14:39:41;2.93;;;2.73;;
1837;SDS011;918;50.796;6.772;2023-06-24T14:42:06;3.27;;;3.07;;
1837;SDS011;918;50.796;6.772;2023-06-24T14:44:32;3.60;;;3.30;;
1837;SDS011;918;50.796;6.772;2023-06-24T14:46:57;3.00;;;2.80;;
1837;SDS011;918;50.796;6.772;2023-06-24T14:49:22;2.77;;;2.67;;
1837;SDS011;918;50.796;6.772;2023-06-24T14:51:48;3.13;;;2.87;;
1837;SDS011;918;50.796;6.772;2023-06-24T14:54:13;3.20;;;3.00;;
1837;SDS011;918;50.796;6.772;2023-06-24T14:56:38;4.20;;;2.60;;
1837;SDS011;918;50.796;6.772;2023-06-24T14:59:03;2.70;;;2.60;;
1837;SDS011;918;50.796;6.772;2023-06-24T15:01:29;2.87;;;2.67;;
1837;SDS011;918;50.796;6.772;2023-06-24T15:03:54;3.00;;;2.80;;
1837;SDS011;918;50.796;6.772;2023-06-24T15:06:19;3.20;;;2.90;;
1837;SDS011;918;50.796;6.772;2023-06-24T15:08:44;3.63;;;3.40;;
1837;SDS011;918;50.796;6.772;2023-06-24T15:11:09;3.37;;;3.17;;
1837;SDS011;918;50.796;6.772;2023-06-24T15:13:35;3.83;;;3.40;;
1837;SDS011;918;50.796;6.772;2023-06-24T15:16:00;3.37;;;3.17;;
1837;SDS011;918;50.796;6.772;2023-06-24T15:18:25;2.90;;;2.70;;
1837;SDS011;918;50.796;6.772;2023-06-24T15:20:51;3.13;;;2.70;;
1837;SDS011;918;50.796;6.772;2023-06-24T15:23:16;3.40;;;3.07;;
1837;SDS011;918;50.796;6.772;2023-06-24T15:25:41;3.27;;;3.07;;